Time;durP1;ratioP1;P1;durP2;ratioP2;P2;SDS_P1;SDS_P2;PMS_P1;PMS_P2;Temp;Humidity;BMP_temperature;BMP_pressure;BME280_temperature;BME280_humidity;BME280_pressure;Samples;Min_cycle;Max_cycle;Signal;HPM_P1;HPM_P2
2022/03/18 00:00:20;;;;;;;14.07;12.75;;;19.00;44.00;;;;;;6163638;23;20188;-71
2022/03/18 00:02:48;;;;;;;13.30;12.00;;;19.00;44.00;;;;;;6190345;23;20153;-71
2022/03/18 00:05:16;;;;;;;13.30;12.02;;;19.00;44.00;;;;;;6164557;23;20271;-71
2022/03/18 00:07:44;;;;;;;12.15;11.02;;;18.90;44.00;;;;;;6164110;23;20243;-72
2022/03/18 00:10:11;;;;;;;11.90;10.80;;;18.90;44.00;;;;;;6163755;23;20196;-71
2022/03/18 00:12:41;;;;;;;11.60;10.60;;;18.90;44.00;;;;;;6164501;23;20603;-71
2022/03/18 00:15:09;;;;;;;11.27;10.27;;;18.90;44.00;;;;;;6163691;23;20176;-71
2022/03/18 00:17:36;;;;;;;11.75;10.50;;;18.90;44.00;;;;;;6164163;23;20192;-71
2022/03/18 00:20:05;;;;;;;11.95;10.85;;;18.90;44.00;;;;;;6189001;23;20196;-71
2022/03/18 00:22:32;;;;;;;11.52;10.52;;;18.90;44.00;;;;;;6164572;23;20172;-71
2022/03/18 00:25:00;;;;;;;11.48;10.38;;;18.90;44.10;;;;;;6191385;23;20176;-71
2022/03/18 00:27:27;;;;;;;10.55;9.55;;;18.80;44.00;;;;;;6165033;23;20632;-71
2022/03/18 00:29:56;;;;;;;11.25;10.15;;;18.80;44.00;;;;;;6189746;23;20192;-71
2022/03/18 00:32:24;;;;;;;11.02;10.05;;;18.80;43.70;;;;;;6165427;23;20199;-71
2022/03/18 00:34:51;;;;;;;11.15;10.15;;;18.80;44.00;;;;;;6169692;23;20255;-71
2022/03/18 00:37:19;;;;;;;11.27;10.18;;;18.80;44.00;;;;;;6190409;23;20188;-71
2022/03/18 00:39:46;;;;;;;11.27;10.27;;;18.80;44.00;;;;;;6190972;23;20188;-71
2022/03/18 00:42:14;;;;;;;10.52;9.63;;;18.80;44.00;;;;;;6164701;23;20172;-71
2022/03/18 00:44:41;;;;;;;10.27;9.38;;;18.80;44.00;;;;;;6164568;23;20240;-71
2022/03/18 00:52:37;;;;;;;10.93;10.02;;;18.70;44.00;;;;;;6189925;23;20168;-71
2022/03/18 00:55:04;;;;;;;9.63;8.73;;;18.70;44.00;;;;;;6189981;23;20152;-71
2022/03/18 00:57:32;;;;;;;10.02;9.13;;;18.70;44.00;;;;;;6190472;23;20238;-71
2022/03/18 01:00:00;;;;;;;10.57;9.63;;;18.70;44.00;;;;;;6163699;23;20192;-71
2022/03/18 01:02:29;;;;;;;10.00;9.10;;;18.70;44.00;;;;;;6188548;23;20176;-71
2022/03/18 01:04:56;;;;;;;10.45;9.45;;;18.70;43.90;;;;;;6163149;23;20179;-71
2022/03/18 01:07:24;;;;;;;10.23;9.32;;;18.70;44.00;;;;;;6163547;23;20172;-71
2022/03/18 01:09:51;;;;;;;9.98;9.10;;;18.70;44.00;;;;;;6163559;23;20251;-71
2022/03/18 01:12:19;;;;;;;9.43;8.63;;;18.70;44.00;;;;;;6188425;23;20231;-71
2022/03/18 01:14:46;;;;;;;9.90;9.00;;;18.60;44.60;;;;;;6190137;23;20615;-71
2022/03/18 01:17:13;;;;;;;9.70;8.90;;;18.60;44.00;;;;;;6188088;23;20599;-71
2022/03/18 01:19:42;;;;;;;9.88;8.98;;;18.60;44.00;;;;;;6169684;23;20321;-64
2022/03/18 01:22:10;;;;;;;9.60;8.80;;;18.60;43.90;;;;;;6245267;23;20151;-63
2022/03/18 01:24:37;;;;;;;9.82;9.02;;;18.60;44.00;;;;;;6189893;23;20250;-63
2022/03/18 01:27:05;;;;;;;9.70;8.90;;;18.60;44.00;;;;;;6189855;23;20217;-63
2022/03/18 01:29:32;;;;;;;9.60;8.75;;;18.60;44.00;;;;;;6190618;23;20175;-64
2022/03/18 01:32:00;;;;;;;9.75;8.88;;;18.60;44.00;;;;;;6218551;23;20665;-64
2022/03/18 01:34:27;;;;;;;9.02;8.15;;;18.60;44.10;;;;;;6217048;23;20182;-64
2022/03/18 01:36:56;;;;;;;9.32;8.52;;;18.60;44.00;;;;;;6190603;23;20511;-64
2022/03/18 01:39:23;;;;;;;9.13;8.43;;;18.60;43.90;;;;;;6190444;23;20572;-65
2022/03/18 01:41:51;;;;;;;9.35;8.55;;;18.60;44.00;;;;;;6195747;23;20167;-64
2022/03/18 01:44:29;;;;;;;;;;;;;;;;;;;;;
2022/03/18 01:46:51;;;;;;;8.82;8.13;;;18.60;44.00;;;;;;6154908;23;20649;-53
2022/03/18 01:49:19;;;;;;;9.02;8.23;;;18.50;43.90;;;;;;6156563;23;20161;-54
2022/03/18 01:51:46;;;;;;;9.35;8.55;;;18.50;44.00;;;;;;6156166;23;20176;-53
2022/03/18 01:57:00;;;;;;;8.93;8.05;;;18.50;44.00;;;;;;6101143;23;20240;-53
2022/03/18 01:59:28;;;;;;;8.32;7.63;;;18.50;44.00;;;;;;6126504;23;20213;-54
2022/03/18 02:01:55;;;;;;;8.63;7.93;;;18.50;44.00;;;;;;6126564;23;20173;-54
2022/03/18 02:04:24;;;;;;;8.93;8.13;;;18.50;44.00;;;;;;6126349;23;20181;-54
2022/03/18 02:06:51;;;;;;;8.35;7.65;;;18.50;44.00;;;;;;6102322;23;20655;-54
2022/03/18 02:09:20;;;;;;;9.15;8.32;;;18.50;44.00;;;;;;6102662;23;20173;-53
2022/03/18 02:11:48;;;;;;;8.27;7.57;;;18.50;44.10;;;;;;6128424;23;20245;-54
2022/03/18 02:14:26;;;;;;;8.23;7.53;;;18.50;44.00;;;;;;6104304;23;20199;-55
2022/03/18 02:16:53;;;;;;;7.80;7.20;;;18.50;44.10;;;;;;6130109;23;20208;-55
2022/03/18 02:19:21;;;;;;;8.50;7.70;;;18.50;44.10;;;;;;6104013;23;20181;-55
2022/03/18 02:21:48;;;;;;;8.02;7.32;;;18.40;44.00;;;;;;6129906;23;20166;-55
2022/03/18 02:24:17;;;;;;;8.57;7.78;;;18.50;44.00;;;;;;6130194;23;20284;-55
2022/03/18 02:26:47;;;;;;;8.48;7.70;;;18.50;44.10;;;;;;6130376;23;20236;-55
2022/03/18 02:29:15;;;;;;;8.25;7.55;;;18.40;44.00;;;;;;6129823;23;20166;-55
2022/03/18 02:32:08;;;;;;;8.45;7.65;;;18.40;44.00;;;;;;6130065;23;20212;-55
2022/03/18 02:34:37;;;;;;;8.07;7.38;;;18.40;44.00;;;;;;6103984;23;20201;-55
2022/03/18 02:37:05;;;;;;;7.97;7.28;;;18.40;44.10;;;;;;6103466;23;20204;-55
2022/03/18 02:39:34;;;;;;;7.80;7.10;;;18.40;44.10;;;;;;6104257;23;20196;-55
2022/03/18 02:42:01;;;;;;;7.07;6.50;;;18.40;44.00;;;;;;6103978;23;20201;-55
2022/03/18 02:44:29;;;;;;;7.88;7.18;;;18.40;44.00;;;;;;6103954;23;20194;-55
2022/03/18 02:46:58;;;;;;;7.30;6.70;;;18.40;44.00;;;;;;6129954;23;20149;-55
2022/03/18 02:49:25;;;;;;;7.65;6.95;;;18.30;44.00;;;;;;6129712;23;20169;-55
2022/03/18 02:51:53;;;;;;;8.02;7.32;;;18.30;44.00;;;;;;6129736;23;20240;-55
2022/03/18 02:54:20;;;;;;;8.25;7.45;;;18.30;44.00;;;;;;6103724;23;20205;-55
2022/03/18 02:56:50;;;;;;;7.55;6.95;;;18.30;44.10;;;;;;6129564;23;20205;-55
2022/03/18 02:59:17;;;;;;;7.18;6.50;;;18.30;44.00;;;;;;6128679;23;20177;-55
2022/03/18 03:01:45;;;;;;;7.90;7.30;;;18.30;44.10;;;;;;6129656;23;20280;-55
2022/03/18 03:04:13;;;;;;;8.00;7.20;;;18.30;44.00;;;;;;6103587;23;20595;-55
2022/03/18 03:09:26;;;;;;;7.55;6.85;;;18.30;44.00;;;;;;6103626;23;20556;-55
2022/03/18 03:11:56;;;;;;;7.55;6.85;;;18.30;44.00;;;;;;6130322;23;20162;-55
2022/03/18 03:14:23;;;;;;;7.68;6.93;;;18.30;44.10;;;;;;6104728;23;20197;-56
2022/03/18 03:16:51;;;;;;;6.78;6.28;;;18.30;44.00;;;;;;6129214;23;20516;-56
2022/03/18 03:19:18;;;;;;;7.10;6.50;;;18.30;44.10;;;;;;6103334;23;20639;-56
2022/03/18 03:21:46;;;;;;;7.43;6.82;;;18.30;44.00;;;;;;6104000;23;20185;-56
2022/03/18 03:24:13;;;;;;;7.18;6.57;;;18.20;44.00;;;;;;6129165;23;20280;-56
2022/03/18 03:26:41;;;;;;;7.07;6.47;;;18.20;44.10;;;;;;6129535;23;20161;-55
2022/03/18 03:29:10;;;;;;;6.97;6.38;;;18.20;44.00;;;;;;6103279;23;20228;-55
2022/03/18 03:31:37;;;;;;;6.53;6.00;;;18.20;44.10;;;;;;6129152;23;20189;-56
2022/03/18 03:34:05;;;;;;;7.43;6.72;;;18.20;44.00;;;;;;6103209;23;20536;-55
2022/03/18 03:36:32;;;;;;;6.78;6.28;;;18.20;44.00;;;;;;6129616;23;20166;-55
2022/03/18 03:39:00;;;;;;;6.75;6.18;;;18.20;44.00;;;;;;6128579;23;20508;-55
2022/03/18 03:41:27;;;;;;;7.70;7.10;;;18.20;44.00;;;;;;6129278;23;20223;-55
2022/03/18 03:43:56;;;;;;;7.75;6.97;;;18.20;44.00;;;;;;6103900;23;20206;-56
2022/03/18 03:46:25;;;;;;;7.38;6.78;;;18.20;44.00;;;;;;6129213;23;20197;-55
2022/03/18 03:48:53;;;;;;;6.80;6.30;;;18.20;44.00;;;;;;6128650;23;20165;-55
2022/03/18 03:51:20;;;;;;;7.43;6.72;;;18.20;44.00;;;;;;6128516;23;20165;-55
2022/03/18 03:53:47;;;;;;;6.90;6.30;;;18.20;44.00;;;;;;6102045;23;20190;-55
2022/03/18 03:56:15;;;;;;;6.78;6.25;;;18.20;43.90;;;;;;6102398;23;20184;-55
2022/03/18 03:58:43;;;;;;;7.00;6.40;;;18.20;43.90;;;;;;6128547;23;20181;-56
2022/03/18 04:01:11;;;;;;;7.15;6.55;;;18.20;44.00;;;;;;6128746;23;20304;-55
2022/03/18 04:03:40;;;;;;;6.60;6.10;;;18.20;44.00;;;;;;6102829;23;20265;-56
2022/03/18 04:06:07;;;;;;;7.15;6.55;;;18.20;44.00;;;;;;6128837;23;20285;-55
2022/03/18 04:08:36;;;;;;;7.32;6.70;;;18.20;44.00;;;;;;6102325;23;20181;-56
2022/03/18 04:11:05;;;;;;;6.82;6.22;;;18.20;43.90;;;;;;6102378;23;20181;-55
2022/03/18 04:13:32;;;;;;;7.13;6.53;;;18.20;43.80;;;;;;6128716;23;20189;-55
2022/03/18 04:16:00;;;;;;;7.07;6.47;;;18.10;43.80;;;;;;6102515;23;20173;-55
2022/03/18 04:18:27;;;;;;;7.20;6.60;;;18.20;43.70;;;;;;6127948;23;20181;-55
2022/03/18 04:20:56;;;;;;;6.97;6.38;;;18.10;43.50;;;;;;6128039;23;20501;-56
2022/03/18 04:23:24;;;;;;;7.10;6.47;;;18.10;43.50;;;;;;6102208;23;20221;-55
2022/03/18 04:25:52;;;;;;;6.70;6.10;;;18.10;43.50;;;;;;6128630;23;20621;-55
2022/03/18 04:28:19;;;;;;;6.75;6.22;;;18.10;43.50;;;;;;6127915;23;20172;-56
2022/03/18 04:30:47;;;;;;;7.30;6.68;;;18.10;43.50;;;;;;6101809;23;20228;-56
2022/03/18 04:33:14;;;;;;;7.72;6.95;;;18.20;43.60;;;;;;6102112;23;20529;-55
2022/03/18 04:35:42;;;;;;;7.18;6.57;;;18.20;43.40;;;;;;6102243;23;20173;-56
2022/03/18 04:38:10;;;;;;;7.63;6.93;;;18.20;43.50;;;;;;6128077;23;20232;-55
2022/03/18 04:40:38;;;;;;;7.32;6.72;;;18.20;43.50;;;;;;6127716;23;20169;-56
2022/03/18 04:43:05;;;;;;;7.22;6.63;;;18.20;43.50;;;;;;6101880;23;20767;-56
2022/03/18 04:45:33;;;;;;;6.90;6.30;;;18.20;43.50;;;;;;6101357;23;20186;-56
2022/03/18 04:48:00;;;;;;;7.03;6.43;;;18.20;43.30;;;;;;6127497;23;20173;-55
2022/03/18 04:50:28;;;;;;;7.50;6.90;;;18.20;43.40;;;;;;6127214;23;20169;-55
2022/03/18 04:52:56;;;;;;;6.35;5.85;;;18.20;43.40;;;;;;6127448;23;20245;-56
2022/03/18 04:55:25;;;;;;;7.25;6.65;;;18.20;43.30;;;;;;6101723;23;20683;-55
2022/03/18 04:57:53;;;;;;;7.40;6.70;;;18.20;43.30;;;;;;6101440;23;20683;-55
2022/03/18 05:00:24;;;;;;;6.40;5.90;;;18.20;43.20;;;;;;6128198;23;20497;-56
2022/03/18 05:02:51;;;;;;;7.03;6.43;;;18.20;43.30;;;;;;6127354;23;20189;-56
2022/03/18 05:05:20;;;;;;;6.50;5.97;;;18.20;43.40;;;;;;6127655;23;20165;-55
2022/03/18 05:07:48;;;;;;;6.63;6.10;;;18.20;43.30;;;;;;6127563;23;20173;-55
2022/03/18 05:10:16;;;;;;;7.15;6.55;;;18.20;43.40;;;;;;6127250;23;20194;-55
2022/03/18 05:12:45;;;;;;;7.07;6.40;;;18.20;43.30;;;;;;6101505;23;20258;-55
2022/03/18 05:15:12;;;;;;;6.97;6.38;;;18.20;43.30;;;;;;6101905;23;20269;-55
2022/03/18 05:17:40;;;;;;;6.90;6.20;;;18.20;43.80;;;;;;6128127;23;20562;-56
2022/03/18 05:20:09;;;;;;;7.07;6.47;;;18.20;43.20;;;;;;6101573;23;20214;-56
2022/03/18 05:22:36;;;;;;;7.22;6.60;;;18.20;43.30;;;;;;6103014;23;20252;-56
2022/03/18 05:25:04;;;;;;;6.53;5.95;;;18.20;43.30;;;;;;6128020;23;20165;-56
2022/03/18 05:27:31;;;;;;;7.07;6.57;;;18.30;43.30;;;;;;6128257;23;20166;-56
2022/03/18 05:30:00;;;;;;;6.32;5.82;;;18.30;43.30;;;;;;6127915;23;20165;-56
2022/03/18 05:32:28;;;;;;;7.05;6.45;;;18.30;43.10;;;;;;6128021;23;20564;-56
2022/03/18 05:34:55;;;;;;;6.95;6.35;;;18.30;43.00;;;;;;6101910;23;20516;-56
2022/03/18 05:37:23;;;;;;;6.75;6.15;;;18.30;43.00;;;;;;6102693;23;20186;-56
2022/03/18 05:39:50;;;;;;;7.20;6.60;;;18.30;42.90;;;;;;6103504;23;20181;-56
2022/03/18 05:42:18;;;;;;;7.50;6.85;;;18.30;43.00;;;;;;6128297;23;20170;-56
2022/03/18 05:44:45;;;;;;;6.97;6.38;;;18.30;43.00;;;;;;6128202;23;20177;-55
2022/03/18 05:47:14;;;;;;;7.60;6.95;;;18.30;43.20;;;;;;6127511;23;20157;-55
2022/03/18 05:49:42;;;;;;;7.80;7.05;;;18.40;43.50;;;;;;6102271;23;20181;-58
2022/03/18 05:52:09;;;;;;;7.55;6.85;;;18.40;43.60;;;;;;6100634;23;20617;-55
2022/03/18 05:54:36;;;;;;;7.95;7.25;;;18.40;43.80;;;;;;6126443;23;20199;-58
2022/03/18 05:57:04;;;;;;;7.80;7.10;;;18.50;43.70;;;;;;6127154;23;20172;-57
2022/03/18 05:59:33;;;;;;;7.80;7.10;;;18.50;43.80;;;;;;6101500;23;20232;-57
2022/03/18 06:02:01;;;;;;;7.28;6.68;;;18.50;43.60;;;;;;6127405;23;20245;-56
2022/03/18 06:04:31;;;;;;;7.03;6.35;;;18.50;43.50;;;;;;6127567;23;20189;-55
2022/03/18 06:06:59;;;;;;;7.45;6.80;;;18.50;43.50;;;;;;6102240;23;20531;-56
2022/03/18 06:12:11;;;;;;;6.47;5.88;;;18.60;43.50;;;;;;6101823;23;20248;-56
2022/03/18 06:14:39;;;;;;;7.72;7.03;;;18.60;43.40;;;;;;6101748;23;20180;-57
2022/03/18 06:17:07;;;;;;;7.45;6.80;;;18.60;43.30;;;;;;6128560;23;20633;-56
2022/03/18 06:19:35;;;;;;;7.22;6.53;;;18.60;43.40;;;;;;6102099;23;20177;-56
2022/03/18 06:22:03;;;;;;;6.75;5.75;;;18.60;43.40;;;;;;6127949;23;20171;-56
2022/03/18 06:24:31;;;;;;;6.68;6.10;;;18.60;43.30;;;;;;6102760;23;20535;-56
2022/03/18 06:27:00;;;;;;;6.90;6.30;;;18.60;43.20;;;;;;6129334;23;20166;-57
2022/03/18 06:29:28;;;;;;;7.10;6.50;;;18.70;43.30;;;;;;6104128;23;20623;-56
2022/03/18 06:31:56;;;;;;;6.82;6.22;;;18.70;43.20;;;;;;6128767;23;20648;-56
2022/03/18 06:34:23;;;;;;;7.00;6.40;;;18.60;43.10;;;;;;6129450;23;20268;-57
2022/03/18 06:36:52;;;;;;;7.57;6.88;;;18.70;43.10;;;;;;6104072;23;20210;-57
2022/03/18 06:39:20;;;;;;;7.25;6.65;;;18.70;43.10;;;;;;6128957;23;20237;-56
2022/03/18 06:41:47;;;;;;;7.03;6.43;;;18.70;43.10;;;;;;6128195;23;20192;-56
2022/03/18 06:44:15;;;;;;;7.93;7.22;;;18.70;43.00;;;;;;6102409;23;20664;-56
2022/03/18 06:46:42;;;;;;;7.15;6.55;;;18.70;42.80;;;;;;6128380;23;20562;-56
2022/03/18 06:49:10;;;;;;;7.90;7.20;;;18.70;42.70;;;;;;6128043;23;20232;-56
2022/03/18 06:51:38;;;;;;;7.32;6.63;;;18.70;42.50;;;;;;6102569;23;20178;-57
2022/03/18 06:54:07;;;;;;;8.02;7.22;;;18.80;42.70;;;;;;6103750;23;20668;-56
2022/03/18 06:56:38;;;;;;;8.40;7.50;;;18.80;42.70;;;;;;6103497;23;20183;-56
2022/03/18 06:59:05;;;;;;;8.27;7.40;;;18.80;42.70;;;;;;6127790;23;20265;-56
2022/03/18 07:01:33;;;;;;;7.57;6.88;;;18.80;42.60;;;;;;6103614;23;20228;-56
2022/03/18 07:04:00;;;;;;;7.50;6.80;;;18.80;42.60;;;;;;6103804;23;20189;-57
2022/03/18 07:06:28;;;;;;;8.27;7.15;;;18.80;42.70;;;;;;6103101;23;20177;-56
2022/03/18 07:08:55;;;;;;;8.18;7.38;;;18.80;42.60;;;;;;6129185;23;20162;-56
2022/03/18 07:11:25;;;;;;;10.07;7.78;;;18.80;42.40;;;;;;6102884;23;20201;-56
2022/03/18 07:13:52;;;;;;;8.82;7.93;;;18.80;42.30;;;;;;6128908;23;20193;-56
2022/03/18 07:19:05;;;;;;;8.63;7.78;;;18.80;42.40;;;;;;6102670;23;20671;-56
2022/03/18 09:49:01;;;;;;;9.43;8.45;;;20.00;40.40;;;;;;6187418;23;20191;-59
2022/03/18 09:51:54;;;;;;;9.68;8.48;;;20.10;40.40;;;;;;6187375;23;20221;-59
2022/03/18 09:54:28;;;;;;;9.38;8.48;;;20.10;40.10;;;;;;6161040;23;20188;-58
2022/03/18 09:56:56;;;;;;;9.70;8.70;;;20.20;40.10;;;;;;6160569;23;20199;-59
2022/03/18 09:59:24;;;;;;;10.05;9.05;;;20.20;39.90;;;;;;6160377;23;20650;-58
2022/03/18 10:02:08;;;;;;;8.30;7.43;;;20.30;39.70;;;;;;6160755;23;20207;-58
2022/03/18 10:04:41;;;;;;;8.85;7.88;;;20.30;39.70;;;;;;6161086;23;20199;-59
2022/03/18 10:07:13;;;;;;;9.10;8.15;;;20.30;39.80;;;;;;6187574;23;20575;-59
2022/03/18 10:09:41;;;;;;;7.35;6.65;;;20.40;39.70;;;;;;6161694;23;20161;-59
2022/03/18 10:12:09;;;;;;;8.73;7.82;;;20.40;40.30;;;;;;6162017;23;20176;-59
2022/03/18 10:14:37;;;;;;;9.65;8.65;;;20.50;39.50;;;;;;6161935;23;20192;-58
2022/03/18 10:17:04;;;;;;;9.40;8.40;;;20.50;39.30;;;;;;6161797;23;20259;-59
2022/03/18 10:19:32;;;;;;;7.45;6.80;;;20.60;39.00;;;;;;6187208;23;20279;-59
2022/03/18 10:22:02;;;;;;;9.82;7.80;;;20.60;39.40;;;;;;6162730;23;20199;-59
2022/03/18 10:24:31;;;;;;;8.55;7.75;;;20.60;39.00;;;;;;6186811;23;20192;-59
2022/03/18 10:27:13;;;;;;;9.63;8.63;;;20.70;39.00;;;;;;6188932;23;20202;-59
2022/03/18 10:29:41;;;;;;;10.15;9.13;;;20.70;38.80;;;;;;6165607;23;20191;-59
2022/03/18 10:32:09;;;;;;;8.73;7.82;;;20.80;38.70;;;;;;6165944;23;20227;-59
2022/03/18 10:37:25;;;;;;;9.25;8.35;;;20.80;38.60;;;;;;6164379;23;20610;-59
2022/03/18 10:40:00;;;;;;;10.55;8.80;;;20.80;38.60;;;;;;6164903;23;20203;-59
2022/03/18 10:42:28;;;;;;;9.70;8.70;;;20.80;38.60;;;;;;6189467;23;20179;-58
2022/03/18 10:44:57;;;;;;;8.75;7.95;;;20.90;38.60;;;;;;6189037;23;20623;-58
2022/03/18 10:47:27;;;;;;;8.20;7.40;;;20.90;38.60;;;;;;6190322;23;20176;-58
2022/03/18 10:50:13;;;;;;;8.27;7.47;;;20.90;38.50;;;;;;6163845;23;20176;-58
2022/03/18 10:52:59;;;;;;;9.38;8.20;;;21.00;38.20;;;;;;6189775;23;20186;-58
2022/03/18 10:55:28;;;;;;;7.35;6.65;;;21.00;38.80;;;;;;6163214;23;20174;-58
2022/03/18 10:57:57;;;;;;;8.38;7.57;;;21.00;38.20;;;;;;6162940;23;20176;-58
2022/03/18 11:00:26;;;;;;;9.30;8.50;;;21.00;38.20;;;;;;6162858;23;20176;-58
2022/03/18 11:02:58;;;;;;;9.82;8.93;;;21.00;38.00;;;;;;6162686;23;20250;-58
2022/03/18 11:05:26;;;;;;;8.43;7.65;;;21.00;38.00;;;;;;6162415;23;20613;-58
2022/03/18 11:07:56;;;;;;;8.98;8.07;;;21.00;38.00;;;;;;6162718;23;20199;-58
2022/03/18 11:13:10;;;;;;;10.32;9.25;;;21.10;37.80;;;;;;6162001;23;20238;-58
2022/03/18 11:15:39;;;;;;;11.10;10.02;;;21.10;37.70;;;;;;6186800;23;20172;-58
2022/03/18 11:18:07;;;;;;;9.25;8.35;;;21.10;37.60;;;;;;6188111;23;20203;-58
2022/03/18 11:20:42;;;;;;;9.00;8.13;;;21.10;37.70;;;;;;6187060;23;20180;-58
2022/03/18 11:23:17;;;;;;;9.55;8.65;;;21.10;37.80;;;;;;6163404;23;20219;-58
2022/03/18 11:25:46;;;;;;;10.13;9.13;;;21.10;37.60;;;;;;6187742;23;20176;-59
2022/03/18 11:28:17;;;;;;;10.68;9.57;;;21.10;37.40;;;;;;6162092;23;20616;-59
2022/03/18 11:30:47;;;;;;;8.52;7.72;;;21.10;37.50;;;;;;6186162;23;20176;-59
2022/03/18 11:33:21;;;;;;;9.40;8.45;;;21.10;37.90;;;;;;6186450;23;20196;-59
2022/03/18 11:36:15;;;;;;;9.07;8.20;;;21.10;37.70;;;;;;6189059;23;20159;-60
2022/03/18 11:39:06;;;;;;;9.48;8.57;;;21.20;37.80;;;;;;6161930;23;20180;-59
2022/03/18 11:42:08;;;;;;;9.65;8.77;;;21.10;37.60;;;;;;6188646;23;20606;-59
2022/03/18 11:44:43;;;;;;;10.27;9.27;;;21.20;37.60;;;;;;6016060;23;20247;-59
2022/03/18 11:47:33;;;;;;;7.97;7.25;;;21.20;37.70;;;;;;6141867;23;20494;-59
2022/03/18 11:50:02;;;;;;;7.05;6.45;;;21.20;37.60;;;;;;6188177;23;20171;-59
2022/03/18 11:52:30;;;;;;;10.05;9.15;;;21.20;37.70;;;;;;6161401;23;20255;-59
2022/03/18 11:55:08;;;;;;;9.00;8.20;;;21.20;37.60;;;;;;6161849;23;20176;-59
2022/03/18 11:57:36;;;;;;;9.82;8.90;;;21.20;37.60;;;;;;6163030;23;20480;-59
2022/03/18 12:00:06;;;;;;;10.30;9.38;;;21.10;37.70;;;;;;6161980;23;20215;-59
2022/03/18 12:02:35;;;;;;;9.65;8.65;;;21.10;37.60;;;;;;6159996;23;20196;-59
2022/03/18 12:05:05;;;;;;;9.77;8.88;;;21.10;37.60;;;;;;6160401;23;20171;-59
2022/03/18 12:07:47;;;;;;;9.77;8.88;;;21.10;37.60;;;;;;6187850;23;20439;-59
2022/03/18 12:10:18;;;;;;;9.43;8.52;;;21.10;37.60;;;;;;6160112;23;20160;-59
2022/03/18 12:12:46;;;;;;;9.80;8.90;;;21.20;37.80;;;;;;6185180;23;20195;-59
2022/03/18 12:15:16;;;;;;;9.65;8.75;;;21.10;37.60;;;;;;6185077;23;20183;-59
2022/03/18 12:17:45;;;;;;;9.75;8.85;;;21.20;37.90;;;;;;6160234;23;20558;-59
2022/03/18 12:20:13;;;;;;;10.85;9.77;;;21.20;37.60;;;;;;6186176;23;20176;-59
2022/03/18 12:22:43;;;;;;;11.05;10.00;;;21.20;37.60;;;;;;6160311;23;20515;-59
2022/03/18 12:25:10;;;;;;;12.70;10.38;;;21.20;37.60;;;;;;6160480;23;20204;-59
2022/03/18 12:27:41;;;;;;;9.95;9.02;;;21.20;37.60;;;;;;6160170;23;20184;-56
2022/03/18 12:30:34;;;;;;;11.07;9.98;;;21.20;37.60;;;;;;6186814;23;20176;-56
2022/03/18 12:33:02;;;;;;;10.20;9.20;;;21.10;37.60;;;;;;6159206;23;20667;-56
2022/03/18 12:35:31;;;;;;;8.40;7.60;;;21.10;37.60;;;;;;6184188;23;20183;-56
2022/03/18 12:38:04;;;;;;;10.20;9.07;;;21.10;37.80;;;;;;6184849;23;20498;-56
2022/03/18 12:40:32;;;;;;;9.80;8.80;;;21.10;37.60;;;;;;6183838;23;20202;-57
2022/03/18 12:43:02;;;;;;;9.25;8.35;;;21.10;37.60;;;;;;6159306;23;20651;-57
2022/03/18 12:45:30;;;;;;;10.60;9.55;;;21.20;37.60;;;;;;6185645;23;20272;-58
2022/03/18 12:47:59;;;;;;;10.88;9.77;;;21.10;37.50;;;;;;6158919;23;20180;-56
2022/03/18 12:50:27;;;;;;;10.80;9.73;;;21.10;37.40;;;;;;6158639;23;20180;-56
2022/03/18 12:52:56;;;;;;;9.23;8.27;;;21.20;37.10;;;;;;6158782;23;20556;-56
2022/03/18 12:55:24;;;;;;;9.93;9.02;;;21.10;37.50;;;;;;6183843;23;20258;-56
2022/03/18 12:57:57;;;;;;;10.20;9.30;;;21.10;37.60;;;;;;6185987;23;20204;-56
2022/03/18 13:00:27;;;;;;;8.73;7.90;;;21.10;37.40;;;;;;6183637;23;20184;-56
2022/03/18 13:02:53;;;;;;;8.18;7.45;;;21.10;37.60;;;;;;6184494;23;20300;-57
2022/03/18 13:05:26;;;;;;;9.48;8.65;;;21.10;37.60;;;;;;6183552;23;20168;-57
2022/03/18 13:07:57;;;;;;;9.80;8.90;;;21.10;37.60;;;;;;6185794;23;20153;-57
2022/03/18 13:10:25;;;;;;;11.48;10.38;;;21.10;37.30;;;;;;6183767;23;20172;-56
2022/03/18 13:12:52;;;;;;;12.18;10.98;;;21.10;37.00;;;;;;6183765;23;20196;-56
2022/03/18 13:15:21;;;;;;;10.02;9.23;;;21.20;37.00;;;;;;6185329;23;20168;-56
2022/03/18 13:17:50;;;;;;;11.25;10.25;;;21.20;37.10;;;;;;6185303;23;20235;-56
2022/03/18 13:20:25;;;;;;;10.93;9.93;;;21.20;36.90;;;;;;6187174;22;20246;-70
2022/03/18 13:22:54;;;;;;;10.70;9.70;;;21.10;36.90;;;;;;6220685;23;20163;-70
2022/03/18 13:25:22;;;;;;;10.40;9.32;;;21.10;37.00;;;;;;6222005;23;20171;-71
2022/03/18 13:27:49;;;;;;;9.73;8.82;;;21.10;37.00;;;;;;6220582;23;20229;-70
2022/03/18 13:33:07;;;;;;;9.57;8.68;;;21.10;37.00;;;;;;6190545;23;20508;-71
2022/03/18 13:35:44;;;;;;;9.55;8.73;;;21.10;37.10;;;;;;6191711;23;20174;-71
2022/03/18 13:38:14;;;;;;;10.60;9.60;;;21.10;37.50;;;;;;6221880;23;20154;-71
2022/03/18 13:40:53;;;;;;;10.45;9.45;;;21.10;37.10;;;;;;6221829;22;20188;-69
2022/03/18 13:43:24;;;;;;;10.27;9.27;;;21.10;37.10;;;;;;6217685;23;20629;-71
2022/03/18 13:45:52;;;;;;;10.43;9.43;;;21.00;36.90;;;;;;6190619;23;20174;-71
2022/03/18 13:48:27;;;;;;;9.82;8.93;;;21.00;37.10;;;;;;6217701;23;20187;-70
2022/03/18 13:50:55;;;;;;;9.05;8.25;;;21.10;37.30;;;;;;6190630;23;20578;-69
2022/03/18 13:53:24;;;;;;;9.15;8.25;;;21.00;37.20;;;;;;6217621;23;20558;-71
2022/03/18 13:55:52;;;;;;;11.07;10.00;;;21.00;37.20;;;;;;6191371;23;20205;-71
2022/03/18 13:58:26;;;;;;;9.15;8.35;;;21.00;37.00;;;;;;6217463;23;20159;-69
2022/03/18 14:00:53;;;;;;;9.25;8.40;;;21.00;37.50;;;;;;6190865;23;20198;-71
2022/03/18 14:03:31;;;;;;;9.55;8.57;;;21.00;37.50;;;;;;6192282;23;20217;-70
2022/03/18 14:06:00;;;;;;;8.95;8.15;;;21.00;37.30;;;;;;6192470;23;20167;-69
2022/03/18 14:08:28;;;;;;;9.48;8.50;;;21.00;37.40;;;;;;6192036;23;20175;-71
2022/03/18 14:10:57;;;;;;;8.63;7.82;;;21.00;37.40;;;;;;6218384;23;20179;-71
2022/03/18 14:13:26;;;;;;;8.95;8.15;;;20.90;37.20;;;;;;6192418;23;20191;-70
2022/03/18 14:15:54;;;;;;;10.00;9.05;;;20.90;37.40;;;;;;6192345;23;20599;-71
2022/03/18 14:18:22;;;;;;;8.57;7.88;;;20.90;37.20;;;;;;6192034;23;20175;-71
2022/03/18 14:21:01;;;;;;;9.60;8.70;;;21.00;37.10;;;;;;6191602;23;20227;-69
2022/03/18 14:23:29;;;;;;;9.93;8.93;;;21.00;37.10;;;;;;6191734;23;20175;-71
2022/03/18 14:25:57;;;;;;;9.90;9.00;;;21.00;37.10;;;;;;6192006;23;20656;-71
2022/03/18 14:28:25;;;;;;;8.93;8.13;;;20.90;37.10;;;;;;6191736;23;20182;-70
2022/03/18 14:30:54;;;;;;;9.48;8.68;;;20.90;37.00;;;;;;6192128;23;20195;-70
2022/03/18 14:33:23;;;;;;;9.57;8.68;;;20.90;37.00;;;;;;6192002;23;20195;-71
2022/03/18 14:35:50;;;;;;;9.27;8.40;;;20.90;36.90;;;;;;6192090;23;20175;-70
2022/03/18 14:38:19;;;;;;;8.98;8.13;;;20.90;37.00;;;;;;6192316;23;20183;-71
2022/03/18 14:40:47;;;;;;;10.00;9.05;;;20.90;37.30;;;;;;6220193;23;20202;-71
2022/03/18 14:43:15;;;;;;;8.38;7.68;;;20.90;37.10;;;;;;6194293;23;20176;-71
2022/03/18 14:45:42;;;;;;;9.77;8.88;;;20.90;37.40;;;;;;6193679;23;20173;-71
2022/03/18 14:48:09;;;;;;;9.05;8.25;;;20.90;37.30;;;;;;6219258;23;20191;-71
2022/03/18 14:50:40;;;;;;;8.63;7.82;;;20.90;37.30;;;;;;6218725;23;20186;-70
2022/03/18 14:53:08;;;;;;;7.07;6.47;;;20.90;37.40;;;;;;6191989;23;20175;-71
2022/03/18 14:58:22;;;;;;;7.90;7.20;;;20.90;38.00;;;;;;6191848;23;20155;-69
2022/03/18 15:00:51;;;;;;;9.82;8.82;;;20.80;37.50;;;;;;6191454;23;20282;-71
2022/03/18 15:03:18;;;;;;;8.63;7.82;;;20.90;37.40;;;;;;6218353;23;20164;-69
2022/03/18 15:05:45;;;;;;;9.35;8.48;;;20.80;37.40;;;;;;6191559;23;20195;-71
2022/03/18 15:08:14;;;;;;;9.15;8.35;;;20.80;37.40;;;;;;6191775;23;20243;-71
2022/03/18 15:10:43;;;;;;;7.85;7.20;;;20.80;37.30;;;;;;6191701;23;20188;-71
2022/03/18 15:13:11;;;;;;;10.15;9.15;;;20.80;37.60;;;;;;6190300;23;20171;-70
2022/03/18 15:15:39;;;;;;;7.72;7.03;;;20.80;37.30;;;;;;6191311;23;20175;-70
2022/03/18 15:18:07;;;;;;;8.20;7.50;;;20.80;37.60;;;;;;6191266;23;20171;-71
2022/03/18 15:20:35;;;;;;;8.10;7.35;;;20.80;37.50;;;;;;6191247;23;20701;-71
2022/03/18 15:23:04;;;;;;;8.10;7.30;;;20.80;37.30;;;;;;6191265;23;20227;-71
2022/03/18 15:25:32;;;;;;;9.68;8.70;;;20.70;37.50;;;;;;6190960;23;20182;-70
2022/03/18 15:28:01;;;;;;;8.93;8.05;;;20.80;37.30;;;;;;6191127;23;20175;-71
2022/03/18 15:30:28;;;;;;;9.38;8.48;;;20.70;37.30;;;;;;6191224;23;20191;-71
2022/03/18 15:32:55;;;;;;;8.27;7.57;;;20.70;37.50;;;;;;6190863;23;20206;-70
2022/03/18 15:35:22;;;;;;;9.02;8.15;;;20.70;37.50;;;;;;6191149;23;20167;-71
2022/03/18 15:37:50;;;;;;;9.05;8.25;;;20.70;37.80;;;;;;6190993;23;20167;-71
2022/03/18 15:40:17;;;;;;;7.25;6.65;;;20.60;37.80;;;;;;6190582;23;20203;-71
2022/03/18 15:42:45;;;;;;;9.45;8.65;;;20.60;37.90;;;;;;6190386;23;20254;-70
2022/03/18 15:45:14;;;;;;;9.75;8.85;;;20.60;37.70;;;;;;6217168;23;20163;-71
2022/03/18 15:47:42;;;;;;;9.23;8.45;;;20.60;37.50;;;;;;6190559;23;20598;-71
2022/03/18 15:50:18;;;;;;;9.05;8.30;;;20.60;38.40;;;;;;6190369;23;20283;-71